Time;durP1;ratioP1;P1;durP2;ratioP2;P2;SDS_P1;SDS_P2;PMS_P1;PMS_P2;Temp;Humidity;BMP_temperature;BMP_pressure;BME280_temperature;BME280_humidity;BME280_pressure;Samples;Min_cycle;Max_cycle;Signal;HPM_P1;HPM_P2
2022/03/21 00:01:07;;;;;;;;;;;;;;;;;;4990783;28;1141;-68
2022/03/21 00:03:34;;;;;;;;;;;;;;;;;;4991163;28;884;-68
2022/03/21 00:06:01;;;;;;;;;;;;;;;;;;4990900;28;1323;-67
2022/03/21 00:08:27;;;;;;;;;;;;;;;;;;4990818;28;888;-68
2022/03/21 00:10:54;;;;;;;;;;;;;;;;;;4990943;28;889;-67
2022/03/21 00:13:22;;;;;;;;;;;;;;;;;;4990862;28;1916;-67
2022/03/21 00:15:49;;;;;;;;;;;;;;;;;;4990877;28;1243;-68
2022/03/21 00:18:15;;;;;;;;;;;;;;;;;;4990677;28;1117;-67
2022/03/21 00:20:42;;;;;;;;;;;;;;;;;;4991038;28;793;-68
2022/03/21 00:23:08;;;;;;;;;;;;;;;;;;4990858;28;1067;-68
2022/03/21 00:25:34;;;;;;;;;;;;;;;;;;4993155;28;1485;-68
2022/03/21 00:28:00;;;;;;;;;;;;;;;;;;4990547;28;892;-68
2022/03/21 00:30:28;;;;;;;;;;;;;;;;;;4973368;28;1151;-67
2022/03/21 00:32:54;;;;;;;;;;;;;;;;;;4991028;28;1105;-68
2022/03/21 00:35:21;;;;;;;;;;;;;;;;;;4990751;28;1982;-67
2022/03/21 00:37:47;;;;;;;;;;;;;;;;;;4990429;28;885;-67
2022/03/21 00:40:14;;;;;;;;;;;;;;;;;;4990667;28;1034;-68
2022/03/21 00:42:40;;;;;;;;;;;;;;;;;;4990720;28;661;-67
2022/03/21 00:45:09;;;;;;;;;;;;;;;;;;4990515;28;1357;-68
2022/03/21 00:47:36;;;;;;;;;;;;;;;;;;4991103;28;929;-68
2022/03/21 00:50:03;;;;;;;;;;;;;;;;;;4994406;28;813;-67
2022/03/21 00:52:30;;;;;;;;;;;;;;;;;;4994240;28;1062;-68
2022/03/21 00:54:56;;;;;;;;;;;;;;;;;;5017097;28;2264;-67
2022/03/21 00:57:23;;;;;;;;;;;;;;;;;;5033206;28;1158;-68
2022/03/21 00:59:49;;;;;;;;;;;;;;;;;;5033311;28;1104;-68
2022/03/21 01:02:15;;;;;;;;;;;;;;;;;;5029410;28;1645;-68
2022/03/21 01:04:43;;;;;;;;;;;;;;;;;;5028890;28;1080;-67
2022/03/21 01:07:09;;;;;;;;;;;;;;;;;;5032866;28;1273;-68
2022/03/21 01:09:35;;;;;;;;;;;;;;;;;;5015740;28;1355;-67
2022/03/21 01:12:03;;;;;;;;;;;;;;;;;;5015417;28;1240;-68
2022/03/21 01:14:30;;;;;;;;;;;;;;;;;;5033040;28;1914;-67
2022/03/21 01:16:57;;;;;;;;;;;;;;;;;;5032493;28;1316;-68
2022/03/21 01:19:23;;;;;;;;;;;;;;;;;;5033325;28;1117;-68
2022/03/21 01:21:51;;;;;;;;;;;;;;;;;;5033075;28;935;-68
2022/03/21 01:24:17;;;;;;;;;;;;;;;;;;5032944;28;1074;-67
2022/03/21 01:26:43;;;;;;;;;;;;;;;;;;5032671;28;1285;-68
2022/03/21 01:29:10;;;;;;;;;;;;;;;;;;5032635;28;1078;-68
2022/03/21 01:31:36;;;;;;;;;;;;;;;;;;5032840;28;1124;-68
2022/03/21 01:34:02;;;;;;;;;;;;;;;;;;5032569;28;1910;-68
2022/03/21 01:36:28;;;;;;;;;;;;;;;;;;5032378;28;1348;-68
2022/03/21 01:38:56;;;;;;;;;;;;;;;;;;5032598;28;959;-68
2022/03/21 01:41:22;;;;;;;;;;;;;;;;;;5032683;28;1078;-68
2022/03/21 01:43:55;;;;;;;;;;;;;;;;;;5032561;28;884;-67
2022/03/21 01:46:21;;;;;;;;;;;;;;;;;;5032028;28;1278;-67
2022/03/21 01:48:47;;;;;;;;;;;;;;;;;;5032533;28;1098;-67
2022/03/21 01:51:13;;;;;;;;;;;;;;;;;;5032247;28;914;-68
2022/03/21 01:56:25;;;;;;;;;;;;;;;;;;5032020;28;1320;-67
2022/03/21 01:58:51;;;;;;;;;;;;;;;;;;5032090;28;1049;-67
2022/03/21 02:01:17;;;;;;;;;;;;;;;;;;5032394;28;812;-67
2022/03/21 02:03:44;;;;;;;;;;;;;;;;;;5032217;28;1073;-67
2022/03/21 02:06:10;;;;;;;;;;;;;;;;;;5031707;28;1275;-68
2022/03/21 02:08:36;;;;;;;;;;;;;;;;;;5032017;28;1035;-68
2022/03/21 02:11:03;;;;;;;;;;;;;;;;;;5031947;28;777;-68
2022/03/21 02:13:31;;;;;;;;;;;;;;;;;;5032068;28;963;-67
2022/03/21 02:15:57;;;;;;;;;;;;;;;;;;5031623;28;1922;-67
2022/03/21 02:18:24;;;;;;;;;;;;;;;;;;5027101;28;2046;-67
2022/03/21 02:20:50;;;;;;;;;;;;;;;;;;5006407;28;1328;-67
2022/03/21 02:23:17;;;;;;;;;;;;;;;;;;5000054;28;1152;-67
2022/03/21 02:25:45;;;;;;;;;;;;;;;;;;4992231;28;1487;-67
2022/03/21 02:28:12;;;;;;;;;;;;;;;;;;4991941;28;966;-67
2022/03/21 02:30:39;;;;;;;;;;;;;;;;;;4992404;28;1121;-67
2022/03/21 02:33:05;;;;;;;;;;;;;;;;;;4992667;28;1070;-67
2022/03/21 02:35:32;;;;;;;;;;;;;;;;;;4993347;28;1918;-67
2022/03/21 02:37:58;;;;;;;;;;;;;;;;;;5006667;28;1246;-67
2022/03/21 02:40:25;;;;;;;;;;;;;;;;;;5011848;28;1066;-67
2022/03/21 02:42:52;;;;;;;;;;;;;;;;;;5011441;28;1125;-67
2022/03/21 02:45:19;;;;;;;;;;;;;;;;;;5011531;28;1291;-67
2022/03/21 02:47:45;;;;;;;;;;;;;;;;;;5011337;28;1114;-67
2022/03/21 02:50:12;;;;;;;;;;;;;;;;;;5011620;28;959;-67
2022/03/21 02:52:39;;;;;;;;;;;;;;;;;;5011633;28;821;-67
2022/03/21 02:55:05;;;;;;;;;;;;;;;;;;5011359;28;1924;-67
2022/03/21 02:57:33;;;;;;;;;;;;;;;;;;5011201;28;1069;-67
2022/03/21 03:00:00;;;;;;;;;;;;;;;;;;5011257;28;1098;-66
2022/03/21 03:02:26;;;;;;;;;;;;;;;;;;5011358;28;1077;-67
2022/03/21 03:04:53;;;;;;;;;;;;;;;;;;5011409;28;1391;-67
2022/03/21 03:07:19;;;;;;;;;;;;;;;;;;5010871;28;1244;-67
2022/03/21 03:09:45;;;;;;;;;;;;;;;;;;5011346;28;1018;-67
2022/03/21 03:12:11;;;;;;;;;;;;;;;;;;5010717;28;1070;-67
2022/03/21 03:14:37;;;;;;;;;;;;;;;;;;4996532;28;1918;-67
2022/03/21 03:17:06;;;;;;;;;;;;;;;;;;4990928;28;1271;-66
2022/03/21 03:19:32;;;;;;;;;;;;;;;;;;4991536;28;1071;-67
2022/03/21 03:21:58;;;;;;;;;;;;;;;;;;4991593;28;999;-67
2022/03/21 03:24:25;;;;;;;;;;;;;;;;;;4974048;28;1377;-67
2022/03/21 03:29:28;;;;;;;;;;;;;;;;;;5005707;28;1698;-67
2022/03/21 03:31:54;;;;;;;;;;;;;;;;;;5009985;28;1142;-68
2022/03/21 03:34:21;;;;;;;;;;;;;;;;;;5011001;28;1914;-67
2022/03/21 03:36:48;;;;;;;;;;;;;;;;;;5010322;28;991;-66
2022/03/21 03:39:14;;;;;;;;;;;;;;;;;;5010313;28;1361;-67
2022/03/21 03:41:42;;;;;;;;;;;;;;;;;;5010740;28;788;-67
2022/03/21 03:44:09;;;;;;;;;;;;;;;;;;5010505;28;1074;-67
2022/03/21 03:46:35;;;;;;;;;;;;;;;;;;5010457;28;1114;-68
2022/03/21 03:49:01;;;;;;;;;;;;;;;;;;5010227;28;1346;-68
2022/03/21 03:51:29;;;;;;;;;;;;;;;;;;5010711;28;1129;-67
2022/03/21 03:53:55;;;;;;;;;;;;;;;;;;5010522;28;730;-68
2022/03/21 03:56:21;;;;;;;;;;;;;;;;;;5010066;28;1922;-67
2022/03/21 03:58:47;;;;;;;;;;;;;;;;;;5010495;28;1862;-67
2022/03/21 04:01:13;;;;;;;;;;;;;;;;;;5010325;28;1086;-68
2022/03/21 04:03:44;;;;;;;;;;;;;;;;;;5010493;28;870;-67
2022/03/21 04:06:11;;;;;;;;;;;;;;;;;;5010088;28;759;-67
2022/03/21 04:08:38;;;;;;;;;;;;;;;;;;5010453;28;1404;-67
2022/03/21 04:11:04;;;;;;;;;;;;;;;;;;5010034;28;777;-67
2022/03/21 04:13:31;;;;;;;;;;;;;;;;;;5010462;28;1153;-67
2022/03/21 04:15:57;;;;;;;;;;;;;;;;;;5010374;28;1974;-66
2022/03/21 04:18:25;;;;;;;;;;;;;;;;;;5010099;28;1328;-67
2022/03/21 04:20:51;;;;;;;;;;;;;;;;;;5010379;28;1140;-68
2022/03/21 04:23:18;;;;;;;;;;;;;;;;;;5010381;28;1576;-68
2022/03/21 04:25:46;;;;;;;;;;;;;;;;;;4995355;28;1591;-67
2022/03/21 04:28:12;;;;;;;;;;;;;;;;;;4993658;28;1314;-68
2022/03/21 04:30:38;;;;;;;;;;;;;;;;;;4994357;28;1126;-66
2022/03/21 04:33:05;;;;;;;;;;;;;;;;;;4994391;28;932;-66
2022/03/21 04:35:31;;;;;;;;;;;;;;;;;;4994005;28;1918;-66
2022/03/21 04:37:57;;;;;;;;;;;;;;;;;;4993901;28;1408;-66
2022/03/21 04:40:24;;;;;;;;;;;;;;;;;;4994281;28;825;-66
2022/03/21 04:42:51;;;;;;;;;;;;;;;;;;5017343;28;1165;-69
2022/03/21 04:45:17;;;;;;;;;;;;;;;;;;5030123;28;1171;-66
2022/03/21 04:47:44;;;;;;;;;;;;;;;;;;5013030;28;1418;-67
2022/03/21 04:50:10;;;;;;;;;;;;;;;;;;5029092;28;1164;-66
2022/03/21 04:52:36;;;;;;;;;;;;;;;;;;5033317;28;1065;-66
2022/03/21 04:55:03;;;;;;;;;;;;;;;;;;5030102;28;1914;-66
2022/03/21 04:57:29;;;;;;;;;;;;;;;;;;5024038;28;1357;-66
2022/03/21 04:59:56;;;;;;;;;;;;;;;;;;5033252;28;888;-69
2022/03/21 05:02:23;;;;;;;;;;;;;;;;;;5033083;28;1074;-66
2022/03/21 05:04:49;;;;;;;;;;;;;;;;;;5030271;28;1235;-68
2022/03/21 05:07:16;;;;;;;;;;;;;;;;;;5024709;28;1500;-65
2022/03/21 05:09:42;;;;;;;;;;;;;;;;;;5033464;28;951;-63
2022/03/21 05:12:09;;;;;;;;;;;;;;;;;;5032955;28;951;-66
2022/03/21 05:14:35;;;;;;;;;;;;;;;;;;5015248;28;1907;-66
2022/03/21 05:17:05;;;;;;;;;;;;;;;;;;5032635;28;1354;-67
2022/03/21 05:19:32;;;;;;;;;;;;;;;;;;5032921;28;868;-66
2022/03/21 05:21:58;;;;;;;;;;;;;;;;;;5032762;28;734;-66
2022/03/21 05:32:37;;;;;;;;;;;;;;;;;;5012901;28;955;-67
2022/03/21 05:37:47;;;;;;;;;;;;;;;;;;5012340;28;1334;-67
2022/03/21 05:42:57;;;;;;;;;;;;;;;;;;5021523;28;1177;-66
2022/03/21 05:45:23;;;;;;;;;;;;;;;;;;5032549;28;1296;-66
2022/03/21 05:50:35;;;;;;;;;;;;;;;;;;5032416;28;800;-66
2022/03/21 05:53:02;;;;;;;;;;;;;;;;;;5032155;28;742;-67
2022/03/21 05:55:29;;;;;;;;;;;;;;;;;;5032227;28;1977;-67
2022/03/21 05:57:55;;;;;;;;;;;;;;;;;;5031726;28;1267;-67
2022/03/21 06:00:21;;;;;;;;;;;;;;;;;;5031968;28;923;-67
2022/03/21 06:02:47;;;;;;;;;;;;;;;;;;5031658;28;1129;-66
2022/03/21 06:05:15;;;;;;;;;;;;;;;;;;5031915;28;1109;-66
2022/03/21 06:07:41;;;;;;;;;;;;;;;;;;5031335;28;1381;-66
2022/03/21 06:10:08;;;;;;;;;;;;;;;;;;5021786;28;1176;-67
2022/03/21 06:12:34;;;;;;;;;;;;;;;;;;5012029;28;1168;-65
2022/03/21 06:15:00;;;;;;;;;;;;;;;;;;5011989;28;1902;-66
2022/03/21 06:17:27;;;;;;;;;;;;;;;;;;4994558;28;1294;-65
2022/03/21 06:19:53;;;;;;;;;;;;;;;;;;5019596;28;1234;-66
2022/03/21 06:22:21;;;;;;;;;;;;;;;;;;5020082;28;1456;-66
2022/03/21 06:24:47;;;;;;;;;;;;;;;;;;5022180;28;1366;-66
2022/03/21 06:27:13;;;;;;;;;;;;;;;;;;5022784;28;1292;-66
2022/03/21 06:29:42;;;;;;;;;;;;;;;;;;5031627;28;939;-66
2022/03/21 06:32:08;;;;;;;;;;;;;;;;;;5031396;28;843;-66
2022/03/21 06:34:35;;;;;;;;;;;;;;;;;;5031523;28;932;-66
2022/03/21 06:37:02;;;;;;;;;;;;;;;;;;5030656;28;1918;-66
2022/03/21 06:39:29;;;;;;;;;;;;;;;;;;5031042;28;856;-67
2022/03/21 06:41:55;;;;;;;;;;;;;;;;;;5031086;28;943;-66
2022/03/21 06:44:22;;;;;;;;;;;;;;;;;;5031119;28;1081;-66
2022/03/21 06:46:48;;;;;;;;;;;;;;;;;;5030132;28;1088;-67
2022/03/21 06:49:14;;;;;;;;;;;;;;;;;;5030708;28;1499;-66
2022/03/21 06:51:40;;;;;;;;;;;;;;;;;;5030952;28;1081;-67
2022/03/21 06:54:06;;;;;;;;;;;;;;;;;;5030804;28;788;-66
2022/03/21 06:56:34;;;;;;;;;;;;;;;;;;5018810;28;1915;-67
2022/03/21 06:59:00;;;;;;;;;;;;;;;;;;5010748;28;1306;-66
2022/03/21 07:01:26;;;;;;;;;;;;;;;;;;5011254;28;1070;-66
2022/03/21 07:03:52;;;;;;;;;;;;;;;;;;5011313;28;1066;-66
2022/03/21 07:06:19;;;;;;;;;;;;;;;;;;5010865;28;932;-67
2022/03/21 07:08:51;;;;;;;;;;;;;;;;;;5011318;28;1324;-67
2022/03/21 07:11:18;;;;;;;;;;;;;;;;;;5011269;28;780;-67
2022/03/21 07:13:45;;;;;;;;;;;;;;;;;;5011139;28;939;-66
2022/03/21 07:16:16;;;;;;;;;;;;;;;;;;5010528;28;1978;-66
2022/03/21 07:18:42;;;;;;;;;;;;;;;;;;5010816;28;1376;-65
2022/03/21 07:21:08;;;;;;;;;;;;;;;;;;5010879;28;1070;-66
2022/03/21 07:23:34;;;;;;;;;;;;;;;;;;5011090;28;931;-66
2022/03/21 07:26:02;;;;;;;;;;;;;;;;;;5010840;28;863;-66
2022/03/21 07:28:28;;;;;;;;;;;;;;;;;;5010432;28;1396;-67
2022/03/21 07:30:57;;;;;;;;;;;;;;;;;;5010817;28;1094;-67
2022/03/21 07:33:24;;;;;;;;;;;;;;;;;;5010870;28;947;-67
2022/03/21 07:35:50;;;;;;;;;;;;;;;;;;5009951;28;1961;-68
2022/03/21 07:38:18;;;;;;;;;;;;;;;;;;5010235;28;1334;-67
2022/03/21 07:40:46;;;;;;;;;;;;;;;;;;5010796;28;1141;-67
2022/03/21 07:43:12;;;;;;;;;;;;;;;;;;5010498;28;1026;-67
2022/03/21 07:48:26;;;;;;;;;;;;;;;;;;5010236;28;1355;-67
2022/03/21 07:50:53;;;;;;;;;;;;;;;;;;5010519;28;880;-67
2022/03/21 07:53:19;;;;;;;;;;;;;;;;;;5009217;28;1007;-67
2022/03/21 07:55:45;;;;;;;;;;;;;;;;;;5009076;28;1985;-67
2022/03/21 07:58:11;;;;;;;;;;;;;;;;;;5013302;28;1446;-67
2022/03/21 08:00:38;;;;;;;;;;;;;;;;;;5014866;28;1117;-67
2022/03/21 08:03:05;;;;;;;;;;;;;;;;;;5014580;28;1070;-67
2022/03/21 08:05:32;;;;;;;;;;;;;;;;;;5014674;28;1070;-67
2022/03/21 08:07:58;;;;;;;;;;;;;;;;;;5013781;28;1267;-67
2022/03/21 08:10:25;;;;;;;;;;;;;;;;;;5014154;28;955;-67
2022/03/21 08:12:51;;;;;;;;;;;;;;;;;;5007789;28;1532;-67
2022/03/21 08:15:18;;;;;;;;;;;;;;;;;;4994648;28;1066;-68
2022/03/21 08:17:50;;;;;;;;;;;;;;;;;;4994206;28;1973;-67
2022/03/21 08:20:18;;;;;;;;;;;;;;;;;;4997128;28;2077;-66
2022/03/21 08:22:47;;;;;;;;;;;;;;;;;;5009634;28;1324;-66
2022/03/21 08:25:13;;;;;;;;;;;;;;;;;;5013716;28;1119;-66
2022/03/21 08:27:39;;;;;;;;;;;;;;;;;;5013545;28;1375;-66
2022/03/21 08:30:07;;;;;;;;;;;;;;;;;;5013829;28;785;-65
2022/03/21 08:32:33;;;;;;;;;;;;;;;;;;5013904;28;987;-66
2022/03/21 08:34:59;;;;;;;;;;;;;;;;;;5013738;28;903;-66
2022/03/21 08:37:26;;;;;;;;;;;;;;;;;;5013483;28;1919;-66
2022/03/21 08:39:53;;;;;;;;;;;;;;;;;;5013650;28;1199;-66
2022/03/21 08:42:19;;;;;;;;;;;;;;;;;;5013328;28;1006;-66
2022/03/21 08:44:45;;;;;;;;;;;;;;;;;;5013469;28;1078;-66
2022/03/21 08:47:12;;;;;;;;;;;;;;;;;;5013586;28;1334;-66
2022/03/21 08:49:38;;;;;;;;;;;;;;;;;;5013555;28;1140;-66
2022/03/21 08:52:06;;;;;;;;;;;;;;;;;;5013815;28;848;-66
2022/03/21 08:54:32;;;;;;;;;;;;;;;;;;5013632;28;1074;-66
2022/03/21 08:56:59;;;;;;;;;;;;;;;;;;5012944;28;1969;-66
2022/03/21 08:59:25;;;;;;;;;;;;;;;;;;5013440;28;931;-66
2022/03/21 09:01:52;;;;;;;;;;;;;;;;;;5013026;28;1305;-66
2022/03/21 09:04:18;;;;;;;;;;;;;;;;;;5013523;28;826;-66
2022/03/21 09:06:44;;;;;;;;;;;;;;;;;;5012630;28;1130;-66
2022/03/21 09:09:10;;;;;;;;;;;;;;;;;;5012466;28;1295;-68
2022/03/21 09:11:37;;;;;;;;;;;;;;;;;;5013005;28;1209;-66
2022/03/21 09:14:06;;;;;;;;;;;;;;;;;;5013099;28;1066;-66
2022/03/21 09:16:32;;;;;;;;;;;;;;;;;;5012796;28;1971;-66
2022/03/21 09:18:59;;;;;;;;;;;;;;;;;;5012778;28;1314;-66
2022/03/21 09:21:25;;;;;;;;;;;;;;;;;;5013067;28;1137;-66
2022/03/21 09:23:51;;;;;;;;;;;;;;;;;;5013031;28;825;-66
2022/03/21 09:26:19;;;;;;;;;;;;;;;;;;5012968;28;1003;-67
2022/03/21 09:28:46;;;;;;;;;;;;;;;;;;5012616;28;1288;-66
2022/03/21 09:31:13;;;;;;;;;;;;;;;;;;5012861;28;1136;-66
2022/03/21 09:33:41;;;;;;;;;;;;;;;;;;5013509;28;779;-68
2022/03/21 09:36:07;;;;;;;;;;;;;;;;;;5012700;28;1919;-69
2022/03/21 09:38:34;;;;;;;;;;;;;;;;;;5012047;28;1271;-68
2022/03/21 09:41:01;;;;;;;;;;;;;;;;;;5012625;28;1141;-68
2022/03/21 09:43:29;;;;;;;;;;;;;;;;;;5012734;28;746;-68
2022/03/21 09:45:55;;;;;;;;;;;;;;;;;;5012462;28;1114;-68
2022/03/21 09:48:23;;;;;;;;;;;;;;;;;;5012243;28;1283;-68
2022/03/21 09:50:52;;;;;;;;;;;;;;;;;;5011929;28;919;-67
2022/03/21 09:53:18;;;;;;;;;;;;;;;;;;5012637;28;929;-68
2022/03/21 09:55:45;;;;;;;;;;;;;;;;;;5012311;28;944;-68
2022/03/21 09:58:11;;;;;;;;;;;;;;;;;;5011855;28;1914;-67
2022/03/21 10:00:37;;;;;;;;;;;;;;;;;;5012086;28;892;-68
2022/03/21 10:03:04;;;;;;;;;;;;;;;;;;5012404;28;950;-68
2022/03/21 10:05:32;;;;;;;;;;;;;;;;;;5012052;28;1145;-68
2022/03/21 10:08:09;;;;;;;;;;;;;;;;;;5011389;28;1236;-68
2022/03/21 10:10:35;;;;;;;;;;;;;;;;;;5012007;28;1137;-69
2022/03/21 10:13:01;;;;;;;;;;;;;;;;;;5012194;28;805;-68
2022/03/21 10:15:29;;;;;;;;;;;;;;;;;;4994345;28;1191;-69
2022/03/21 10:18:04;;;;;;;;;;;;;;;;;;5011391;28;1919;-67
2022/03/21 10:20:33;;;;;;;;;;;;;;;;;;4994249;28;1481;-67
2022/03/21 10:23:00;;;;;;;;;;;;;;;;;;4974480;28;1035;-68
2022/03/21 10:25:27;;;;;;;;;;;;;;;;;;4992334;28;892;-68
2022/03/21 10:27:54;;;;;;;;;;;;;;;;;;4991676;28;1281;-68
2022/03/21 10:30:22;;;;;;;;;;;;;;;;;;4992017;28;935;-68
2022/03/21 10:32:51;;;;;;;;;;;;;;;;;;4991765;28;924;-68
2022/03/21 10:35:18;;;;;;;;;;;;;;;;;;4992060;28;956;-67
2022/03/21 10:37:47;;;;;;;;;;;;;;;;;;4991454;28;1907;-68
2022/03/21 10:40:17;;;;;;;;;;;;;;;;;;4991899;28;976;-69
2022/03/21 10:42:49;;;;;;;;;;;;;;;;;;4991387;28;1066;-68
2022/03/21 10:45:15;;;;;;;;;;;;;;;;;;4991964;28;793;-68
2022/03/21 10:47:48;;;;;;;;;;;;;;;;;;4991342;28;1279;-68
2022/03/21 10:50:14;;;;;;;;;;;;;;;;;;4992046;28;1065;-68
2022/03/21 10:52:40;;;;;;;;;;;;;;;;;;4991580;28;951;-68
2022/03/21 10:55:08;;;;;;;;;;;;;;;;;;4991774;28;1066;-68
2022/03/21 10:57:36;;;;;;;;;;;;;;;;;;4991160;28;1914;-68
2022/03/21 11:00:11;;;;;;;;;;;;;;;;;;4991636;28;801;-68
2022/03/21 11:02:38;;;;;;;;;;;;;;;;;;4991840;28;939;-69
2022/03/21 11:05:04;;;;;;;;;;;;;;;;;;4991544;28;1126;-68
2022/03/21 11:07:31;;;;;;;;;;;;;;;;;;5001849;28;1783;-68
2022/03/21 11:09:57;;;;;;;;;;;;;;;;;;5010275;28;2250;-68
2022/03/21 11:12:24;;;;;;;;;;;;;;;;;;5009461;28;2492;-70
2022/03/21 11:14:51;;;;;;;;;;;;;;;;;;5000828;28;2345;-68
2022/03/21 11:17:17;;;;;;;;;;;;;;;;;;5010229;28;1914;-69
2022/03/21 11:19:43;;;;;;;;;;;;;;;;;;5016155;28;1291;-68
2022/03/21 11:22:10;;;;;;;;;;;;;;;;;;5016302;28;2294;-68
2022/03/21 11:24:37;;;;;;;;;;;;;;;;;;5009126;28;2302;-68
2022/03/21 11:27:20;;;;;;;;;;;;;;;;;;5013372;28;2627;-68
2022/03/21 11:29:49;;;;;;;;;;;;;;;;;;5010959;28;1160;-68
2022/03/21 11:32:22;;;;;;;;;;;;;;;;;;5010238;28;2493;-68
2022/03/21 11:34:51;;;;;;;;;;;;;;;;;;5010689;28;974;-68
2022/03/21 11:37:24;;;;;;;;;;;;;;;;;;5009862;28;1923;-68
2022/03/21 11:39:50;;;;;;;;;;;;;;;;;;5010767;28;959;-68
2022/03/21 11:42:23;;;;;;;;;;;;;;;;;;5010591;28;1262;-69
2022/03/21 11:44:53;;;;;;;;;;;;;;;;;;5010618;28;2445;-68
2022/03/21 11:47:24;;;;;;;;;;;;;;;;;;5010012;28;1897;-68
2022/03/21 11:49:50;;;;;;;;;;;;;;;;;;5010468;28;1123;-69
2022/03/21 11:52:16;;;;;;;;;;;;;;;;;;5010597;28;843;-69
2022/03/21 11:54:42;;;;;;;;;;;;;;;;;;5010323;28;1121;-69
2022/03/21 11:57:09;;;;;;;;;;;;;;;;;;5010100;28;1919;-69
2022/03/21 11:59:54;;;;;;;;;;;;;;;;;;5010400;28;1054;-68
2022/03/21 12:02:51;;;;;;;;;;;;;;;;;;5010547;28;913;-68
2022/03/21 12:05:18;;;;;;;;;;;;;;;;;;5001762;28;1761;-69
2022/03/21 12:07:45;;;;;;;;;;;;;;;;;;5007514;28;2000;-68
2022/03/21 12:10:11;;;;;;;;;;;;;;;;;;5007204;28;2980;-68
2022/03/21 12:12:52;;;;;;;;;;;;;;;;;;5007674;28;1465;-70
2022/03/21 12:15:19;;;;;;;;;;;;;;;;;;5010098;28;2445;-68
2022/03/21 12:17:47;;;;;;;;;;;;;;;;;;5007473;28;1910;-68
2022/03/21 12:20:14;;;;;;;;;;;;;;;;;;4991778;28;1658;-68
2022/03/21 12:22:43;;;;;;;;;;;;;;;;;;5001511;28;1658;-70
2022/03/21 12:25:13;;;;;;;;;;;;;;;;;;4990509;28;1121;-67
2022/03/21 12:27:40;;;;;;;;;;;;;;;;;;5004465;28;2230;-68
2022/03/21 12:30:27;;;;;;;;;;;;;;;;;;5009676;28;1046;-68
2022/03/21 12:32:54;;;;;;;;;;;;;;;;;;5010055;28;818;-68
2022/03/21 12:35:40;;;;;;;;;;;;;;;;;;5010346;28;732;-68
2022/03/21 12:38:09;;;;;;;;;;;;;;;;;;5009729;28;1918;-68
2022/03/21 12:40:36;;;;;;;;;;;;;;;;;;5010140;28;1110;-68
2022/03/21 12:43:02;;;;;;;;;;;;;;;;;;5010420;28;783;-68
2022/03/21 12:45:29;;;;;;;;;;;;;;;;;;5013870;28;773;-68
2022/03/21 12:47:58;;;;;;;;;;;;;;;;;;5013628;28;1315;-68
2022/03/21 12:50:25;;;;;;;;;;;;;;;;;;5013541;28;834;-68
2022/03/21 12:52:52;;;;;;;;;;;;;;;;;;5013307;28;1018;-68
2022/03/21 12:55:20;;;;;;;;;;;;;;;;;;5013467;28;1002;-68
2022/03/21 12:57:52;;;;;;;;;;;;;;;;;;5013057;28;2055;-68
2022/03/21 13:00:19;;;;;;;;;;;;;;;;;;5013769;28;947;-68
2022/03/21 13:02:45;;;;;;;;;;;;;;;;;;5013223;28;1078;-69
2022/03/21 13:10:43;;;;;;;;;;;;;;;;;;5013146;28;839;-68
2022/03/21 13:13:09;;;;;;;;;;;;;;;;;;5013304;28;927;-69
2022/03/21 13:15:35;;;;;;;;;;;;;;;;;;5013149;28;1211;-70
2022/03/21 13:18:03;;;;;;;;;;;;;;;;;;5012640;28;1977;-68
2022/03/21 13:20:31;;;;;;;;;;;;;;;;;;5013160;28;1154;-69
2022/03/21 13:22:58;;;;;;;;;;;;;;;;;;5013007;28;892;-69
2022/03/21 13:25:26;;;;;;;;;;;;;;;;;;5012738;28;828;-69
2022/03/21 13:27:57;;;;;;;;;;;;;;;;;;5012393;28;1289;-69
2022/03/21 13:30:23;;;;;;;;;;;;;;;;;;5011778;28;2356;-70
2022/03/21 13:32:49;;;;;;;;;;;;;;;;;;5012647;28;1062;-70
2022/03/21 13:35:15;;;;;;;;;;;;;;;;;;5013100;28;1125;-69
2022/03/21 13:37:41;;;;;;;;;;;;;;;;;;5012256;28;1907;-69
2022/03/21 13:40:08;;;;;;;;;;;;;;;;;;5012697;28;1133;-68
2022/03/21 13:42:36;;;;;;;;;;;;;;;;;;5012472;28;860;-68
2022/03/21 13:45:06;;;;;;;;;;;;;;;;;;5013053;28;840;-69
2022/03/21 13:47:39;;;;;;;;;;;;;;;;;;5012536;28;1400;-70
2022/03/21 13:50:05;;;;;;;;;;;;;;;;;;5011793;28;1861;-69
2022/03/21 13:52:43;;;;;;;;;;;;;;;;;;5012470;28;1121;-68
2022/03/21 13:55:10;;;;;;;;;;;;;;;;;;5012350;28;1082;-69
2022/03/21 13:57:43;;;;;;;;;;;;;;;;;;5011868;28;1910;-69
2022/03/21 14:00:11;;;;;;;;;;;;;;;;;;5012507;28;988;-67
2022/03/21 14:02:42;;;;;;;;;;;;;;;;;;5012366;28;773;-67
2022/03/21 14:05:14;;;;;;;;;;;;;;;;;;5012275;28;781;-68
2022/03/21 14:07:40;;;;;;;;;;;;;;;;;;5011854;28;1404;-69
2022/03/21 14:10:12;;;;;;;;;;;;;;;;;;5012272;28;904;-69
2022/03/21 14:12:38;;;;;;;;;;;;;;;;;;5012410;28;1113;-67
2022/03/21 14:15:04;;;;;;;;;;;;;;;;;;5009625;28;1979;-67
2022/03/21 14:17:32;;;;;;;;;;;;;;;;;;5011362;28;1974;-69
2022/03/21 14:19:58;;;;;;;;;;;;;;;;;;5011891;28;1054;-68
2022/03/21 14:22:24;;;;;;;;;;;;;;;;;;5007580;28;1602;-68
2022/03/21 14:24:50;;;;;;;;;;;;;;;;;;5012046;28;1062;-68
2022/03/21 14:27:16;;;;;;;;;;;;;;;;;;5011247;28;1370;-68
2022/03/21 14:29:43;;;;;;;;;;;;;;;;;;5012021;28;1077;-67
2022/03/21 14:32:09;;;;;;;;;;;;;;;;;;5012136;28;772;-68
2022/03/21 14:34:37;;;;;;;;;;;;;;;;;;5011709;28;959;-68
2022/03/21 14:37:03;;;;;;;;;;;;;;;;;;5011393;28;1342;-68
2022/03/21 14:39:29;;;;;;;;;;;;;;;;;;5011483;28;1975;-68
2022/03/21 14:41:56;;;;;;;;;;;;;;;;;;5011610;28;1077;-68
2022/03/21 14:44:23;;;;;;;;;;;;;;;;;;5011538;28;904;-68
2022/03/21 14:46:50;;;;;;;;;;;;;;;;;;5011361;28;1070;-68
2022/03/21 14:49:16;;;;;;;;;;;;;;;;;;5011064;28;1341;-68
2022/03/21 14:51:43;;;;;;;;;;;;;;;;;;5011625;28;1125;-68
2022/03/21 14:54:10;;;;;;;;;;;;;;;;;;5011051;28;1202;-69
2022/03/21 14:56:36;;;;;;;;;;;;;;;;;;5010929;28;907;-69
2022/03/21 14:59:02;;;;;;;;;;;;;;;;;;5011170;28;1915;-69
2022/03/21 15:01:29;;;;;;;;;;;;;;;;;;5010859;28;947;-68
2022/03/21 15:03:55;;;;;;;;;;;;;;;;;;5011338;28;1121;-68
2022/03/21 15:06:21;;;;;;;;;;;;;;;;;;5010231;28;880;-68
2022/03/21 15:08:49;;;;;;;;;;;;;;;;;;5011180;28;1293;-68
2022/03/21 15:11:15;;;;;;;;;;;;;;;;;;5010936;28;820;-69
2022/03/21 15:13:41;;;;;;;;;;;;;;;;;;5011371;28;1327;-69
2022/03/21 15:16:07;;;;;;;;;;;;;;;;;;5010949;28;1152;-68
2022/03/21 15:18:37;;;;;;;;;;;;;;;;;;5011076;28;1914;-69
2022/03/21 15:21:03;;;;;;;;;;;;;;;;;;5011316;28;1104;-68
2022/03/21 15:23:32;;;;;;;;;;;;;;;;;;5010638;28;696;-69
2022/03/21 15:26:01;;;;;;;;;;;;;;;;;;5010765;28;741;-70
2022/03/21 15:28:28;;;;;;;;;;;;;;;;;;4992420;28;1294;-69
2022/03/21 15:30:54;;;;;;;;;;;;;;;;;;5008758;28;2321;-69
2022/03/21 15:33:21;;;;;;;;;;;;;;;;;;5018713;28;2666;-69
2022/03/21 15:35:47;;;;;;;;;;;;;;;;;;5030215;28;1286;-68
2022/03/21 15:43:42;;;;;;;;;;;;;;;;;;5010473;28;821;-68
2022/03/21 15:46:08;;;;;;;;;;;;;;;;;;5010241;28;1121;-69
2022/03/21 15:48:34;;;;;;;;;;;;;;;;;;5009984;28;1396;-68
2022/03/21 15:51:01;;;;;;;;;;;;;;;;;;5010684;28;888;-68
2022/03/21 15:53:27;;;;;;;;;;;;;;;;;;5011611;28;949;-67
2022/03/21 15:55:54;;;;;;;;;;;;;;;;;;5010483;28;717;-67
2022/03/21 15:58:21;;;;;;;;;;;;;;;;;;5009341;28;1985;-66
2022/03/21 16:00:48;;;;;;;;;;;;;;;;;;5010399;28;1102;-66
2022/03/21 16:03:14;;;;;;;;;;;;;;;;;;5010027;28;796;-67
2022/03/21 16:05:41;;;;;;;;;;;;;;;;;;5021126;28;1188;-66
2022/03/21 16:08:07;;;;;;;;;;;;;;;;;;5012533;28;1433;-67
2022/03/21 16:10:33;;;;;;;;;;;;;;;;;;5013915;28;1299;-66
2022/03/21 16:13:01;;;;;;;;;;;;;;;;;;5012431;28;1322;-66
2022/03/21 16:15:27;;;;;;;;;;;;;;;;;;5010091;28;1148;-66
2022/03/21 16:17:54;;;;;;;;;;;;;;;;;;5011257;28;1388;-66
2022/03/21 16:20:21;;;;;;;;;;;;;;;;;;5008985;28;1983;-67
2022/03/21 16:22:47;;;;;;;;;;;;;;;;;;4994465;28;908;-66
2022/03/21 16:25:16;;;;;;;;;;;;;;;;;;4977189;28;1278;-66
2022/03/21 16:27:43;;;;;;;;;;;;;;;;;;4994085;28;1311;-66
2022/03/21 16:30:10;;;;;;;;;;;;;;;;;;4994636;28;971;-66
2022/03/21 16:32:36;;;;;;;;;;;;;;;;;;4994248;28;895;-67
2022/03/21 16:35:04;;;;;;;;;;;;;;;;;;5002685;28;1152;-67
2022/03/21 16:37:31;;;;;;;;;;;;;;;;;;5013189;28;1321;-67
2022/03/21 16:39:58;;;;;;;;;;;;;;;;;;5013074;28;1919;-66
2022/03/21 16:42:25;;;;;;;;;;;;;;;;;;4995657;28;1047;-66
2022/03/21 16:44:51;;;;;;;;;;;;;;;;;;5013804;28;955;-67
2022/03/21 16:47:17;;;;;;;;;;;;;;;;;;5013338;28;1314;-66
2022/03/21 16:49:44;;;;;;;;;;;;;;;;;;5013679;28;1074;-66
2022/03/21 16:52:12;;;;;;;;;;;;;;;;;;5013778;28;1074;-66
2022/03/21 16:54:39;;;;;;;;;;;;;;;;;;5013608;28;796;-66
2022/03/21 16:57:05;;;;;;;;;;;;;;;;;;5013135;28;1409;-66
2022/03/21 16:59:31;;;;;;;;;;;;;;;;;;5013246;28;1915;-66
2022/03/21 17:01:57;;;;;;;;;;;;;;;;;;5013499;28;1050;-66
2022/03/21 17:04:24;;;;;;;;;;;;;;;;;;5013500;28;908;-66
2022/03/21 17:06:50;;;;;;;;;;;;;;;;;;5013264;28;742;-66
2022/03/21 17:09:17;;;;;;;;;;;;;;;;;;5013477;28;1311;-66
2022/03/21 17:11:44;;;;;;;;;;;;;;;;;;5013363;28;816;-66
2022/03/21 17:14:12;;;;;;;;;;;;;;;;;;5013314;28;904;-66
2022/03/21 17:16:40;;;;;;;;;;;;;;;;;;5012629;28;1218;-66
2022/03/21 17:24:36;;;;;;;;;;;;;;;;;;5013109;28;805;-66
2022/03/21 17:27:02;;;;;;;;;;;;;;;;;;5013173;28;1307;-66
2022/03/21 17:29:29;;;;;;;;;;;;;;;;;;5012348;28;1058;-66
2022/03/21 17:31:55;;;;;;;;;;;;;;;;;;5013122;28;785;-66
2022/03/21 17:34:21;;;;;;;;;;;;;;;;;;5012585;28;884;-66
2022/03/21 17:36:48;;;;;;;;;;;;;;;;;;5012380;28;1113;-67
2022/03/21 17:39:14;;;;;;;;;;;;;;;;;;4995055;28;1915;-67
2022/03/21 17:41:44;;;;;;;;;;;;;;;;;;5012837;28;1129;-67
2022/03/21 17:44:10;;;;;;;;;;;;;;;;;;5012646;28;805;-67
2022/03/21 17:46:36;;;;;;;;;;;;;;;;;;5012466;28;1081;-67
2022/03/21 17:49:03;;;;;;;;;;;;;;;;;;5000518;28;1589;-67